createdAt,value
2019-04-06T00:00:24.519Z,30.23
2019-04-06T00:02:54.953Z,37.10
2019-04-06T00:05:25.143Z,29.95
2019-04-06T00:07:55.205Z,31.87
2019-04-06T00:10:25.330Z,33.48
2019-04-06T00:12:55.427Z,32.03
2019-04-06T00:15:25.867Z,31.85
2019-04-06T00:17:55.972Z,30.37
2019-04-06T00:20:26.043Z,31.23
2019-04-06T00:22:57.234Z,33.83
2019-04-06T00:25:27.482Z,31.82
2019-04-06T00:27:57.633Z,33.75
2019-04-06T00:30:29.412Z,33.23
2019-04-06T00:33:03.907Z,34.50
2019-04-06T00:35:34.006Z,31.07
2019-04-06T00:38:04.195Z,31.15
2019-04-06T00:40:34.608Z,44.90
2019-04-06T00:43:05.494Z,32.20
2019-04-06T00:45:35.660Z,35.00
2019-04-06T00:48:05.860Z,32.73
2019-04-06T00:50:35.907Z,32.95
2019-04-06T00:53:06.065Z,31.62
2019-04-06T00:55:36.126Z,31.85
2019-04-06T00:58:06.301Z,35.30
2019-04-06T01:00:36.441Z,34.70
2019-04-06T01:03:06.712Z,33.08
2019-04-06T01:05:36.853Z,35.15
2019-04-06T01:08:07.142Z,32.90
2019-04-06T01:10:37.189Z,29.18
2019-04-06T01:13:07.393Z,31.12
2019-04-06T01:15:37.510Z,29.92
2019-04-06T01:18:07.706Z,32.15
2019-04-06T01:20:37.825Z,31.82
2019-04-06T01:23:07.966Z,31.05
2019-04-06T01:25:38.085Z,34.75
2019-04-06T01:28:08.155Z,33.63
2019-04-06T01:30:38.282Z,30.55
2019-04-06T01:33:08.407Z,37.73
2019-04-06T01:35:38.469Z,35.48
2019-04-06T01:38:08.748Z,32.15
2019-04-06T01:40:39.761Z,35.00
2019-04-06T01:43:09.961Z,35.52
2019-04-06T01:45:40.080Z,36.73
2019-04-06T01:48:10.132Z,37.90
2019-04-06T01:50:40.264Z,35.30
2019-04-06T01:53:10.385Z,35.90
2019-04-06T01:55:40.455Z,39.58
2019-04-06T01:58:10.492Z,39.13
2019-04-06T02:00:42.269Z,39.08
2019-04-06T02:03:13.387Z,39.90
2019-04-06T02:05:43.547Z,39.40
2019-04-06T02:08:13.694Z,38.02
2019-04-06T02:10:43.856Z,43.25
2019-04-06T02:13:13.898Z,44.20
2019-04-06T02:15:43.956Z,41.92
2019-04-06T02:18:13.999Z,45.12
2019-04-06T02:20:44.057Z,41.60
2019-04-06T02:23:15.619Z,48.83
2019-04-06T02:25:45.661Z,51.35
2019-04-06T02:28:15.686Z,56.08
2019-04-06T02:31:02.534Z,56.55
2019-04-06T02:33:50.596Z,57.30
2019-04-06T02:36:31.406Z,56.85
2019-04-06T02:39:11.856Z,59.35
2019-04-06T02:41:44.844Z,60.38
2019-04-06T02:44:18.029Z,60.67
2019-04-06T02:46:49.318Z,58.85
2019-04-06T02:49:19.357Z,62.67
2019-04-06T02:51:50.524Z,62.90
2019-04-06T02:54:20.679Z,63.55
2019-04-06T02:56:50.707Z,61.37
2019-04-06T02:59:20.891Z,66.57
2019-04-06T03:01:51.064Z,64.00
2019-04-06T03:04:21.236Z,70.22
2019-04-06T03:06:51.268Z,60.75
2019-04-06T03:09:21.377Z,64.67
2019-04-06T03:11:51.469Z,68.85
2019-04-06T03:14:21.570Z,63.13
2019-04-06T03:16:51.598Z,66.42
2019-04-06T03:19:21.713Z,68.30
2019-04-06T03:21:51.738Z,64.90
2019-04-06T03:24:21.785Z,69.27
2019-04-06T03:27:01.083Z,69.22
2019-04-06T03:29:23.606Z,70.15
2019-04-06T03:31:53.734Z,66.57
2019-04-06T03:34:23.743Z,73.30
2019-04-06T03:36:53.767Z,72.75
2019-04-06T03:39:23.805Z,73.35
2019-04-06T03:41:53.980Z,73.22
2019-04-06T03:44:24.178Z,70.72
2019-04-06T03:46:54.496Z,68.00
2019-04-06T03:49:24.756Z,68.50
2019-04-06T03:51:55.193Z,67.82
2019-04-06T03:54:25.380Z,68.17
2019-04-06T03:56:55.520Z,71.70
2019-04-06T03:59:25.595Z,64.30
2019-04-06T04:01:55.729Z,71.07
2019-04-06T04:04:25.812Z,68.05
2019-04-06T04:06:55.871Z,63.55
2019-04-06T04:09:26.173Z,66.12
2019-04-06T04:11:56.243Z,64.90
2019-04-06T04:14:26.317Z,70.05
2019-04-06T04:16:56.446Z,69.45
2019-04-06T04:19:26.530Z,66.30
2019-04-06T04:21:56.613Z,62.17
2019-04-06T04:24:26.670Z,59.08
2019-04-06T04:26:56.734Z,64.35
2019-04-06T04:29:26.856Z,62.88
2019-04-06T04:31:57.125Z,61.13
2019-04-06T04:34:27.479Z,67.80
2019-04-06T04:36:57.892Z,68.95
2019-04-06T04:39:28.055Z,61.63
2019-04-06T04:41:58.101Z,60.60
2019-04-06T04:44:28.471Z,64.95
2019-04-06T04:46:58.541Z,61.48
2019-04-06T04:49:28.688Z,58.65
2019-04-06T04:51:58.804Z,57.83
2019-04-06T04:54:29.829Z,58.52
2019-04-06T04:56:59.918Z,60.85
2019-04-06T04:59:29.947Z,61.45
2019-04-06T05:02:00.150Z,57.48
2019-04-06T05:04:30.342Z,58.63
2019-04-06T05:07:00.560Z,56.45
2019-04-06T05:09:30.707Z,53.23
2019-04-06T05:12:00.845Z,55.30
2019-04-06T05:14:59.503Z,53.00
2019-04-06T05:17:31.075Z,50.40
2019-04-06T05:20:01.353Z,51.18
2019-04-06T05:22:31.677Z,51.37
2019-04-06T05:25:02.353Z,50.88
2019-04-06T05:27:32.697Z,50.17
2019-04-06T05:30:03.059Z,48.00
2019-04-06T05:32:33.202Z,44.65
2019-04-06T05:35:07.656Z,48.08
2019-04-06T05:37:38.023Z,46.23
2019-04-06T05:40:08.341Z,44.40
2019-04-06T05:42:38.476Z,43.63
2019-04-06T05:45:09.274Z,42.58
2019-04-06T05:47:39.482Z,40.60
2019-04-06T05:50:09.752Z,40.52
2019-04-06T05:52:39.886Z,42.20
2019-04-06T05:55:10.086Z,38.88
2019-04-06T05:57:40.298Z,41.18
2019-04-06T06:00:11.511Z,43.80
2019-04-06T06:02:41.895Z,41.60
2019-04-06T06:05:12.337Z,41.73
2019-04-06T06:07:43.004Z,43.73
2019-04-06T06:10:13.131Z,40.90
2019-04-06T06:12:43.346Z,39.33
2019-04-06T06:15:13.481Z,41.18
2019-04-06T06:17:43.652Z,42.98
2019-04-06T06:20:14.139Z,42.95
2019-04-06T06:22:44.190Z,50.20
2019-04-06T06:25:14.431Z,45.98
2019-04-06T06:27:44.798Z,47.80
2019-04-06T06:30:15.151Z,49.98
2019-04-06T06:32:45.207Z,52.75
2019-04-06T06:35:15.427Z,52.03
2019-04-06T06:37:45.663Z,50.67
2019-04-06T06:40:15.993Z,49.08
2019-04-06T06:42:46.054Z,51.77
2019-04-06T06:45:16.402Z,50.38
2019-04-06T06:47:46.570Z,52.48
2019-04-06T06:50:16.702Z,55.95
2019-04-06T06:52:46.919Z,54.33
2019-04-06T06:55:17.224Z,55.55
2019-04-06T06:57:47.522Z,52.78
2019-04-06T07:00:18.086Z,55.23
2019-04-06T07:02:48.439Z,58.25
2019-04-06T07:05:18.733Z,52.27
2019-04-06T07:07:48.896Z,57.00
2019-04-06T07:10:19.249Z,54.42
2019-04-06T07:12:49.542Z,54.88
2019-04-06T07:15:19.850Z,52.10
2019-04-06T07:17:50.157Z,51.05
2019-04-06T07:20:20.466Z,53.80
2019-04-06T07:22:50.595Z,50.03
2019-04-06T07:25:20.834Z,53.38
2019-04-06T07:27:51.271Z,54.75
2019-04-06T07:30:22.578Z,56.37
2019-04-06T07:32:55.233Z,48.78
2019-04-06T07:35:24.636Z,52.73
2019-04-06T07:37:54.879Z,54.42
2019-04-06T07:40:25.910Z,58.45
2019-04-06T07:42:56.198Z,50.90
2019-04-06T07:45:26.424Z,52.90
2019-04-06T07:47:56.692Z,53.63
2019-04-06T07:50:26.916Z,53.10
2019-04-06T07:52:57.120Z,59.98
2019-04-06T07:55:27.337Z,52.10
2019-04-06T07:57:57.464Z,53.60
2019-04-06T08:00:27.693Z,55.60
2019-04-06T08:02:57.758Z,53.15
2019-04-06T08:05:27.915Z,54.50
2019-04-06T08:07:58.026Z,53.78
2019-04-06T08:10:28.216Z,56.25
2019-04-06T08:12:58.323Z,53.78
2019-04-06T08:15:28.381Z,57.55
2019-04-06T08:17:58.622Z,52.60
2019-04-06T08:20:28.672Z,51.37
2019-04-06T08:22:58.904Z,51.63
2019-04-06T08:25:29.174Z,53.70
2019-04-06T08:27:59.273Z,53.85
2019-04-06T08:30:29.591Z,47.08
2019-04-06T08:32:59.754Z,46.13
2019-04-06T08:35:29.901Z,48.52
2019-04-06T08:37:59.979Z,48.70
2019-04-06T08:40:30.102Z,45.95
2019-04-06T08:43:00.234Z,45.10
2019-04-06T08:45:30.285Z,44.03
2019-04-06T08:48:00.350Z,48.52
2019-04-06T08:50:30.467Z,46.15
2019-04-06T08:53:00.537Z,43.85
2019-04-06T08:55:31.216Z,41.30
2019-04-06T08:58:01.336Z,39.20
2019-04-06T09:00:31.411Z,36.28
2019-04-06T09:03:01.548Z,38.92
2019-04-06T09:05:31.605Z,39.00
2019-04-06T09:08:01.658Z,38.13
2019-04-06T09:10:31.823Z,38.92
2019-04-06T09:13:01.953Z,37.90
2019-04-06T09:15:33.364Z,38.13
2019-04-06T09:18:03.990Z,38.38
2019-04-06T09:20:34.068Z,36.10
2019-04-06T09:23:04.387Z,38.67
2019-04-06T09:25:34.929Z,39.58
2019-04-06T09:28:05.128Z,37.40
2019-04-06T09:30:35.268Z,35.85
2019-04-06T09:33:05.453Z,33.83
2019-04-06T09:35:35.798Z,36.38
2019-04-06T09:38:06.219Z,33.73
2019-04-06T09:40:36.301Z,31.40
2019-04-06T09:43:06.432Z,28.70
2019-04-06T09:45:38.140Z,30.27
2019-04-06T09:48:15.973Z,32.28
2019-04-06T09:50:59.708Z,28.83
2019-04-06T09:53:37.008Z,27.73
2019-04-06T09:59:04.026Z,29.02
2019-04-06T10:01:39.254Z,31.53
2019-04-06T10:04:16.977Z,26.65
2019-04-06T10:06:48.902Z,34.00
2019-04-06T10:09:23.188Z,23.73
2019-04-06T10:11:57.782Z,25.17
2019-04-06T10:14:29.747Z,31.25
2019-04-06T10:17:01.484Z,27.48
2019-04-06T10:19:53.824Z,28.50
2019-04-06T10:22:24.665Z,29.52
2019-04-06T10:25:05.076Z,31.55
2019-04-06T10:27:39.654Z,29.10
2019-04-06T10:30:27.901Z,29.60
2019-04-06T10:33:02.603Z,29.37
2019-04-06T10:35:37.145Z,31.07
2019-04-06T10:38:20.876Z,29.72
2019-04-06T10:40:55.529Z,33.05
2019-04-06T10:43:30.389Z,33.58
2019-04-06T10:46:02.403Z,32.30
2019-04-06T10:48:34.189Z,31.48
2019-04-06T10:51:06.129Z,33.02
2019-04-06T10:53:40.719Z,33.58
2019-04-06T10:56:28.625Z,31.23
2019-04-06T11:01:49.206Z,33.25
2019-04-06T11:04:21.014Z,31.42
2019-04-06T11:07:01.373Z,31.37
2019-04-06T11:09:33.236Z,31.85
2019-04-06T11:12:07.784Z,36.33
2019-04-06T11:14:39.566Z,33.30
2019-04-06T11:17:20.147Z,35.17
2019-04-06T11:19:51.940Z,31.87
2019-04-06T11:22:26.522Z,33.55
2019-04-06T11:25:13.186Z,34.25
2019-04-06T11:28:04.256Z,33.38
2019-04-06T11:30:52.491Z,32.90
2019-04-06T11:33:26.857Z,37.20
2019-04-06T11:36:01.406Z,36.35
2019-04-06T11:38:40.244Z,34.70
2019-04-06T11:41:18.053Z,35.52
2019-04-06T11:43:53.759Z,36.55
2019-04-06T11:46:28.761Z,38.08
2019-04-06T11:49:12.434Z,35.73
2019-04-06T11:51:44.184Z,35.85
2019-04-06T11:54:25.406Z,37.08
2019-04-06T11:57:03.329Z,32.50
2019-04-06T11:59:53.302Z,35.98
2019-04-06T12:02:27.617Z,32.88
2019-04-06T12:05:02.415Z,33.33
2019-04-06T12:07:50.601Z,31.65
2019-04-06T12:10:22.314Z,36.30
2019-04-06T12:13:03.404Z,32.33
2019-04-06T12:15:35.121Z,31.90
2019-04-06T12:18:19.340Z,31.48
2019-04-06T12:20:59.877Z,31.20
2019-04-06T12:23:33.435Z,28.25
2019-04-06T12:26:23.444Z,28.70
2019-04-06T12:29:01.534Z,30.60
2019-04-06T12:31:50.073Z,28.23
2019-04-06T12:34:39.263Z,29.90
2019-04-06T12:37:27.334Z,29.87
2019-04-06T12:40:03.108Z,31.80
2019-04-06T12:45:29.469Z,31.45
2019-04-06T12:48:03.986Z,31.52
2019-04-06T12:50:54.066Z,32.45
2019-04-06T12:53:31.764Z,28.52
2019-04-06T12:56:09.268Z,29.45
2019-04-06T12:58:41.130Z,29.25
2019-04-06T13:01:18.778Z,27.60
2019-04-06T13:03:56.245Z,28.35
2019-04-06T13:06:31.071Z,28.55
2019-04-06T13:09:05.489Z,29.95
2019-04-06T13:11:46.222Z,31.62
2019-04-06T13:14:27.215Z,26.57
2019-04-06T13:17:02.158Z,42.20
2019-04-06T13:19:34.272Z,31.80
2019-04-06T13:22:22.261Z,32.63
2019-04-06T13:27:36.706Z,31.20
2019-04-06T13:30:18.001Z,29.63
2019-04-06T13:32:52.361Z,29.77
2019-04-06T13:35:36.170Z,30.30
2019-04-06T13:38:17.755Z,30.80
2019-04-06T13:41:02.233Z,31.55
2019-04-06T13:43:46.044Z,30.20
2019-04-06T13:46:20.628Z,30.02
2019-04-06T13:49:08.720Z,32.10
2019-04-06T13:51:52.195Z,30.27
2019-04-06T13:54:26.733Z,31.07
2019-04-06T13:57:01.078Z,29.18
2019-04-06T13:59:39.019Z,34.20
2019-04-06T14:02:16.693Z,28.57
2019-04-06T14:05:04.428Z,34.05
2019-04-06T14:07:36.125Z,31.42
2019-04-06T14:10:25.042Z,32.13
2019-04-06T14:13:02.715Z,31.73
2019-04-06T14:15:43.385Z,34.83
2019-04-06T14:18:21.161Z,28.35
2019-04-06T14:21:09.656Z,26.10
2019-04-06T14:23:43.941Z,29.05
2019-04-06T14:26:34.440Z,29.48
2019-04-06T14:29:24.648Z,27.27
2019-04-06T14:32:02.511Z,29.25
2019-04-06T14:34:46.305Z,29.55
2019-04-06T14:37:20.691Z,26.48
2019-04-06T14:39:58.440Z,28.57
2019-04-06T14:42:32.888Z,27.25
2019-04-06T14:45:13.331Z,29.60
2019-04-06T14:47:50.526Z,29.92
2019-04-06T14:50:22.236Z,29.30
2019-04-06T14:53:10.314Z,30.27
2019-04-06T14:55:44.727Z,28.00
2019-04-06T14:58:34.874Z,27.13
2019-04-06T15:01:09.507Z,27.67
2019-04-06T15:03:53.050Z,29.98
2019-04-06T15:06:27.478Z,25.88
2019-04-06T15:09:02.057Z,29.82
2019-04-06T15:11:38.167Z,29.60
2019-04-06T15:14:28.264Z,26.68
2019-04-06T15:17:16.261Z,25.15
2019-04-06T15:19:48.083Z,23.45
2019-04-06T15:22:19.788Z,24.25
2019-04-06T15:24:54.190Z,25.30
2019-04-06T15:27:28.613Z,24.55
2019-04-06T15:30:03.265Z,26.23
2019-04-06T15:32:35.589Z,22.13
2019-04-06T15:35:11.406Z,26.50
2019-04-06T15:37:45.741Z,21.15
2019-04-06T15:40:17.574Z,22.73
2019-04-06T15:42:52.514Z,27.13
2019-04-06T15:45:36.308Z,23.67
2019-04-06T15:48:36.496Z,25.77
2019-04-06T15:51:12.970Z,23.98
2019-04-06T15:53:44.704Z,23.02
2019-04-06T16:53:05.103Z,25.97
2019-04-06T16:55:39.634Z,27.10
2019-04-06T16:58:23.380Z,25.92
2019-04-06T17:00:57.978Z,27.25
2019-04-06T17:03:38.768Z,30.17
2019-04-06T17:06:29.093Z,26.10
2019-04-06T17:09:17.653Z,28.17
2019-04-06T17:12:07.964Z,31.50
2019-04-06T17:14:42.626Z,31.60
2019-04-06T17:17:30.599Z,36.93
2019-04-06T17:22:49.551Z,36.85
2019-04-06T17:25:27.136Z,33.05
2019-04-06T17:28:04.824Z,33.18
2019-04-06T17:30:37.146Z,38.20
2019-04-06T17:33:18.547Z,32.58
2019-04-06T17:35:52.020Z,36.08
2019-04-06T17:38:29.830Z,34.55
2019-04-06T17:41:13.575Z,35.68
2019-04-06T17:43:54.285Z,33.25
2019-04-06T17:46:34.887Z,37.28
2019-04-06T17:49:09.326Z,35.28
2019-04-06T17:51:41.108Z,37.00
2019-04-06T17:54:29.199Z,34.35
2019-04-06T17:57:04.911Z,33.08
2019-04-06T17:59:39.573Z,30.17
2019-04-06T18:02:14.122Z,33.02
2019-04-06T18:04:57.624Z,36.60
2019-04-06T18:07:29.782Z,35.03
2019-04-06T18:10:04.593Z,38.33
2019-04-06T18:12:54.338Z,35.33
2019-04-06T18:15:24.950Z,39.27
2019-04-06T18:17:55.217Z,37.35
2019-04-06T18:20:25.294Z,35.43
2019-04-06T18:22:55.358Z,36.23
2019-04-06T18:25:25.503Z,34.08
2019-04-06T18:27:56.181Z,37.30
2019-04-06T18:30:26.921Z,42.03
2019-04-06T18:33:01.781Z,34.35
2019-04-06T18:35:30.391Z,40.67
2019-04-06T18:38:04.985Z,38.17
2019-04-06T18:40:35.126Z,40.45
2019-04-06T18:43:05.320Z,37.03
2019-04-06T18:45:36.994Z,40.80
2019-04-06T18:48:07.125Z,34.92
2019-04-06T18:50:39.169Z,39.48
2019-04-06T18:53:09.382Z,38.58
2019-04-06T18:55:39.503Z,38.08
2019-04-06T18:58:12.760Z,41.85
2019-04-06T19:00:43.661Z,46.48
2019-04-06T19:03:15.446Z,43.00
2019-04-06T19:05:46.234Z,40.15
2019-04-06T19:08:16.431Z,46.05
2019-04-06T19:10:46.718Z,37.73
2019-04-06T19:13:16.830Z,42.25
2019-04-06T19:15:47.166Z,40.70
2019-04-06T19:18:17.260Z,42.95
2019-04-06T19:20:47.455Z,43.42
2019-04-06T19:23:17.532Z,44.03
2019-04-06T19:25:47.674Z,40.50
2019-04-06T19:28:17.728Z,41.10
2019-04-06T19:30:48.700Z,39.53
2019-04-06T19:33:25.216Z,42.23
2019-04-06T19:35:50.686Z,42.40
2019-04-06T19:38:20.876Z,44.33
2019-04-06T19:40:51.003Z,42.73
2019-04-06T19:43:21.844Z,39.35
2019-04-06T19:45:52.106Z,41.58
2019-04-06T19:48:24.548Z,44.48
2019-04-06T19:50:54.586Z,39.45
2019-04-06T19:53:24.659Z,43.58
2019-04-06T19:55:54.934Z,43.30
2019-04-06T19:58:25.099Z,40.20
2019-04-06T20:00:55.153Z,41.88
2019-04-06T20:03:34.084Z,41.65
2019-04-06T20:05:57.232Z,40.45
2019-04-06T20:08:27.444Z,37.17
2019-04-06T20:10:57.577Z,39.88
2019-04-06T20:13:28.667Z,36.98
2019-04-06T20:15:59.844Z,36.70
2019-04-06T20:18:30.384Z,38.98
2019-04-06T20:21:00.874Z,36.68
2019-04-06T20:23:31.109Z,35.95
2019-04-06T20:26:01.242Z,34.05
2019-04-06T20:28:31.444Z,36.50
2019-04-06T20:31:01.659Z,35.90
2019-04-06T20:33:31.732Z,37.67
2019-04-06T20:36:02.420Z,34.63
2019-04-06T20:38:32.628Z,38.17
2019-04-06T20:41:03.006Z,38.50
2019-04-06T20:43:33.165Z,42.90
2019-04-06T20:46:03.305Z,40.85
2019-04-06T20:48:33.720Z,39.90
2019-04-06T20:51:04.161Z,43.20
2019-04-06T20:53:34.316Z,42.10
2019-04-06T20:56:04.554Z,42.75
2019-04-06T20:58:34.737Z,43.60
2019-04-06T21:01:05.034Z,47.73
2019-04-06T21:03:35.641Z,47.70
2019-04-06T21:06:06.409Z,49.77
2019-04-06T21:08:36.634Z,51.05
2019-04-06T21:11:07.201Z,48.70
2019-04-06T21:13:38.025Z,49.08
2019-04-06T21:16:08.178Z,55.48
2019-04-06T21:18:38.903Z,55.05
2019-04-06T21:21:09.163Z,56.85
2019-04-06T21:23:39.309Z,49.45
2019-04-06T21:26:09.433Z,53.75
2019-04-06T21:28:40.638Z,54.53
2019-04-06T21:31:10.893Z,54.58
2019-04-06T21:33:41.031Z,54.75
2019-04-06T21:36:11.335Z,52.17
2019-04-06T21:38:41.464Z,56.95
2019-04-06T21:41:11.687Z,61.08
2019-04-06T21:43:41.827Z,58.52
2019-04-06T21:46:12.197Z,62.43
2019-04-06T21:51:29.731Z,60.23
2019-04-06T21:53:59.898Z,60.17
2019-04-06T21:56:31.002Z,59.88
2019-04-06T21:59:01.616Z,63.38
2019-04-06T22:01:32.824Z,60.88
2019-04-06T22:04:03.158Z,60.70
2019-04-06T22:06:34.872Z,61.68
2019-04-06T22:09:09.445Z,64.87
2019-04-06T22:11:40.003Z,65.25
2019-04-06T22:14:10.262Z,62.98
2019-04-06T22:16:40.451Z,64.37
2019-04-06T22:19:11.145Z,62.70
2019-04-06T22:21:42.950Z,62.50
2019-04-06T22:24:13.721Z,63.13
2019-04-06T22:26:44.341Z,63.60
2019-04-06T22:29:14.503Z,60.52
2019-04-06T22:31:44.890Z,64.15
2019-04-06T22:34:15.016Z,61.75
2019-04-06T22:36:45.158Z,60.55
2019-04-06T22:39:15.398Z,56.73
2019-04-06T22:41:45.640Z,58.87
2019-04-06T22:44:15.663Z,59.63
2019-04-06T22:46:46.329Z,61.55
2019-04-06T22:49:17.813Z,62.48
2019-04-06T22:51:48.304Z,60.78
2019-04-06T22:54:18.522Z,59.15
2019-04-06T22:56:48.709Z,61.15
2019-04-06T22:59:18.886Z,55.20
2019-04-06T23:01:49.483Z,58.60
2019-04-06T23:04:21.285Z,57.88
2019-04-06T23:06:56.303Z,59.20
2019-04-06T23:09:26.908Z,59.85
2019-04-06T23:11:57.121Z,57.50
2019-04-06T23:14:30.169Z,55.83
2019-04-06T23:17:02.108Z,58.33
2019-04-06T23:19:34.100Z,54.38
2019-04-06T23:22:04.607Z,58.13
2019-04-06T23:24:34.791Z,48.28
2019-04-06T23:27:05.641Z,52.95
2019-04-06T23:29:36.346Z,54.13
2019-04-06T23:32:06.587Z,50.83
2019-04-06T23:34:36.689Z,51.37
2019-04-06T23:37:07.214Z,53.87
2019-04-06T23:39:37.757Z,60.23
2019-04-06T23:42:08.477Z,53.78
2019-04-06T23:44:38.564Z,54.60
2019-04-06T23:47:08.674Z,59.13
2019-04-06T23:49:38.695Z,62.25
2019-04-06T23:52:09.176Z,69.50
2019-04-06T23:54:39.918Z,65.67
2019-04-06T23:57:10.232Z,61.73
2019-04-06T23:59:40.329Z,68.95
